sensor_id;sensor_type;location;lat;lon;timestamp;P1;durP1;ratioP1;P2;durP2;ratioP2
19887;SDS011;10106;51.332;12.336;2022-07-23T00:01:33;6.63;;;4.80;;
19887;SDS011;10106;51.332;12.336;2022-07-23T00:03:59;6.10;;;4.93;;
19887;SDS011;10106;51.332;12.336;2022-07-23T00:06:24;8.52;;;5.82;;
19887;SDS011;10106;51.332;12.336;2022-07-23T00:08:50;7.18;;;4.40;;
19887;SDS011;10106;51.332;12.336;2022-07-23T00:11:16;5.68;;;4.72;;
19887;SDS011;10106;51.332;12.336;2022-07-23T00:13:42;6.65;;;5.47;;
19887;SDS011;10106;51.332;12.336;2022-07-23T00:16:08;8.10;;;5.10;;
19887;SDS011;10106;51.332;12.336;2022-07-23T00:18:34;7.00;;;5.20;;
19887;SDS011;10106;51.332;12.336;2022-07-23T00:20:59;8.50;;;5.60;;
19887;SDS011;10106;51.332;12.336;2022-07-23T00:23:25;6.03;;;5.00;;
19887;SDS011;10106;51.332;12.336;2022-07-23T00:25:52;7.38;;;5.28;;
19887;SDS011;10106;51.332;12.336;2022-07-23T00:28:18;7.07;;;5.38;;
19887;SDS011;10106;51.332;12.336;2022-07-23T00:30:44;6.60;;;5.07;;
19887;SDS011;10106;51.332;12.336;2022-07-23T00:33:10;8.27;;;4.97;;
19887;SDS011;10106;51.332;12.336;2022-07-23T00:35:37;6.97;;;5.15;;
19887;SDS011;10106;51.332;12.336;2022-07-23T00:38:08;6.60;;;5.30;;
19887;SDS011;10106;51.332;12.336;2022-07-23T00:40:35;6.50;;;5.10;;
19887;SDS011;10106;51.332;12.336;2022-07-23T00:43:02;7.50;;;5.15;;
19887;SDS011;10106;51.332;12.336;2022-07-23T00:45:28;7.75;;;5.40;;
19887;SDS011;10106;51.332;12.336;2022-07-23T00:47:54;8.48;;;5.20;;
19887;SDS011;10106;51.332;12.336;2022-07-23T00:50:19;7.45;;;5.45;;
19887;SDS011;10106;51.332;12.336;2022-07-23T00:52:45;10.00;;;5.38;;
19887;SDS011;10106;51.332;12.336;2022-07-23T00:55:11;8.17;;;5.63;;
19887;SDS011;10106;51.332;12.336;2022-07-23T00:57:38;7.95;;;5.05;;
19887;SDS011;10106;51.332;12.336;2022-07-23T01:00:05;7.50;;;5.10;;
19887;SDS011;10106;51.332;12.336;2022-07-23T01:02:34;6.25;;;4.95;;
19887;SDS011;10106;51.332;12.336;2022-07-23T01:05:00;6.72;;;5.35;;
19887;SDS011;10106;51.332;12.336;2022-07-23T01:07:26;7.13;;;5.70;;
19887;SDS011;10106;51.332;12.336;2022-07-23T01:09:52;7.00;;;5.45;;
19887;SDS011;10106;51.332;12.336;2022-07-23T01:12:17;10.52;;;7.05;;
19887;SDS011;10106;51.332;12.336;2022-07-23T01:14:43;7.53;;;5.20;;
19887;SDS011;10106;51.332;12.336;2022-07-23T01:17:09;7.77;;;5.60;;
19887;SDS011;10106;51.332;12.336;2022-07-23T01:19:34;14.00;;;8.73;;
19887;SDS011;10106;51.332;12.336;2022-07-23T01:22:01;8.60;;;6.10;;
19887;SDS011;10106;51.332;12.336;2022-07-23T01:24:29;10.70;;;7.47;;
19887;SDS011;10106;51.332;12.336;2022-07-23T01:26:55;10.07;;;5.60;;
19887;SDS011;10106;51.332;12.336;2022-07-23T01:29:21;8.60;;;5.60;;
19887;SDS011;10106;51.332;12.336;2022-07-23T01:31:46;6.60;;;5.30;;
19887;SDS011;10106;51.332;12.336;2022-07-23T01:34:12;8.60;;;5.68;;
19887;SDS011;10106;51.332;12.336;2022-07-23T01:36:38;6.75;;;5.40;;
19887;SDS011;10106;51.332;12.336;2022-07-23T01:39:05;7.53;;;5.40;;
19887;SDS011;10106;51.332;12.336;2022-07-23T01:41:31;8.48;;;5.40;;
19887;SDS011;10106;51.332;12.336;2022-07-23T01:43:57;7.18;;;5.10;;
19887;SDS011;10106;51.332;12.336;2022-07-23T01:46:23;6.82;;;4.95;;
19887;SDS011;10106;51.332;12.336;2022-07-23T01:48:49;6.93;;;5.30;;
19887;SDS011;10106;51.332;12.336;2022-07-23T01:51:15;7.32;;;4.90;;
19887;SDS011;10106;51.332;12.336;2022-07-23T01:53:40;8.52;;;5.50;;
19887;SDS011;10106;51.332;12.336;2022-07-23T01:56:06;6.30;;;4.97;;
19887;SDS011;10106;51.332;12.336;2022-07-23T01:58:32;6.35;;;5.20;;
19887;SDS011;10106;51.332;12.336;2022-07-23T02:00:58;6.57;;;5.20;;
19887;SDS011;10106;51.332;12.336;2022-07-23T02:03:24;7.47;;;5.10;;
19887;SDS011;10106;51.332;12.336;2022-07-23T02:05:50;6.45;;;4.95;;
19887;SDS011;10106;51.332;12.336;2022-07-23T02:08:16;6.65;;;5.35;;
19887;SDS011;10106;51.332;12.336;2022-07-23T02:10:42;7.70;;;5.40;;
19887;SDS011;10106;51.332;12.336;2022-07-23T02:13:08;6.93;;;5.15;;
19887;SDS011;10106;51.332;12.336;2022-07-23T02:15:34;8.13;;;5.07;;
19887;SDS011;10106;51.332;12.336;2022-07-23T02:18:00;8.40;;;5.60;;
19887;SDS011;10106;51.332;12.336;2022-07-23T02:20:25;8.90;;;5.97;;
19887;SDS011;10106;51.332;12.336;2022-07-23T02:22:51;6.63;;;5.40;;
19887;SDS011;10106;51.332;12.336;2022-07-23T02:25:17;6.80;;;5.28;;
19887;SDS011;10106;51.332;12.336;2022-07-23T02:27:43;6.40;;;4.80;;
19887;SDS011;10106;51.332;12.336;2022-07-23T02:30:08;7.50;;;5.00;;
19887;SDS011;10106;51.332;12.336;2022-07-23T02:32:35;7.53;;;5.30;;
19887;SDS011;10106;51.332;12.336;2022-07-23T02:35:01;7.88;;;5.40;;
19887;SDS011;10106;51.332;12.336;2022-07-23T02:37:28;7.47;;;5.50;;
19887;SDS011;10106;51.332;12.336;2022-07-23T02:39:53;6.53;;;5.40;;
19887;SDS011;10106;51.332;12.336;2022-07-23T02:42:19;6.87;;;5.37;;
19887;SDS011;10106;51.332;12.336;2022-07-23T02:44:45;7.70;;;5.10;;
19887;SDS011;10106;51.332;12.336;2022-07-23T02:47:10;10.83;;;5.13;;
19887;SDS011;10106;51.332;12.336;2022-07-23T02:49:36;5.90;;;5.30;;
19887;SDS011;10106;51.332;12.336;2022-07-23T02:52:02;7.00;;;5.50;;
19887;SDS011;10106;51.332;12.336;2022-07-23T02:54:27;6.40;;;5.13;;
19887;SDS011;10106;51.332;12.336;2022-07-23T02:56:53;11.37;;;6.40;;
19887;SDS011;10106;51.332;12.336;2022-07-23T02:59:19;8.03;;;5.77;;
19887;SDS011;10106;51.332;12.336;2022-07-23T03:01:44;8.27;;;5.83;;
19887;SDS011;10106;51.332;12.336;2022-07-23T03:04:10;7.45;;;5.57;;
19887;SDS011;10106;51.332;12.336;2022-07-23T03:06:37;8.40;;;6.23;;
19887;SDS011;10106;51.332;12.336;2022-07-23T03:09:03;9.27;;;5.90;;
19887;SDS011;10106;51.332;12.336;2022-07-23T03:11:30;11.10;;;6.00;;
19887;SDS011;10106;51.332;12.336;2022-07-23T03:13:56;8.40;;;5.63;;
19887;SDS011;10106;51.332;12.336;2022-07-23T03:16:22;8.13;;;5.20;;
19887;SDS011;10106;51.332;12.336;2022-07-23T03:18:47;8.50;;;5.60;;
19887;SDS011;10106;51.332;12.336;2022-07-23T03:21:13;10.00;;;6.20;;
19887;SDS011;10106;51.332;12.336;2022-07-23T03:23:38;10.65;;;6.63;;
19887;SDS011;10106;51.332;12.336;2022-07-23T03:26:04;7.72;;;5.40;;
19887;SDS011;10106;51.332;12.336;2022-07-23T03:28:30;8.03;;;5.33;;
19887;SDS011;10106;51.332;12.336;2022-07-23T03:30:56;9.07;;;6.00;;
19887;SDS011;10106;51.332;12.336;2022-07-23T03:33:21;7.97;;;5.82;;
19887;SDS011;10106;51.332;12.336;2022-07-23T03:35:47;7.47;;;5.03;;
19887;SDS011;10106;51.332;12.336;2022-07-23T03:38:13;5.80;;;4.73;;
19887;SDS011;10106;51.332;12.336;2022-07-23T03:40:39;6.70;;;5.07;;
19887;SDS011;10106;51.332;12.336;2022-07-23T04:48:38;7.15;;;4.82;;
19887;SDS011;10106;51.332;12.336;2022-07-23T04:51:04;11.90;;;6.13;;
19887;SDS011;10106;51.332;12.336;2022-07-23T04:53:30;8.17;;;6.00;;
19887;SDS011;10106;51.332;12.336;2022-07-23T04:55:56;11.35;;;6.40;;
19887;SDS011;10106;51.332;12.336;2022-07-23T04:58:22;11.82;;;7.13;;
19887;SDS011;10106;51.332;12.336;2022-07-23T05:00:47;10.30;;;6.75;;
19887;SDS011;10106;51.332;12.336;2022-07-23T05:05:49;10.00;;;6.90;;
19887;SDS011;10106;51.332;12.336;2022-07-23T05:08:14;10.17;;;6.80;;
19887;SDS011;10106;51.332;12.336;2022-07-23T05:10:40;11.35;;;6.97;;
19887;SDS011;10106;51.332;12.336;2022-07-23T05:13:06;10.50;;;6.50;;
19887;SDS011;10106;51.332;12.336;2022-07-23T05:15:32;10.33;;;7.07;;
19887;SDS011;10106;51.332;12.336;2022-07-23T05:17:58;11.20;;;7.33;;
19887;SDS011;10106;51.332;12.336;2022-07-23T05:20:23;11.27;;;7.00;;
19887;SDS011;10106;51.332;12.336;2022-07-23T05:22:49;13.20;;;7.00;;
19887;SDS011;10106;51.332;12.336;2022-07-23T05:25:14;10.85;;;6.90;;
19887;SDS011;10106;51.332;12.336;2022-07-23T05:27:40;10.95;;;6.50;;
19887;SDS011;10106;51.332;12.336;2022-07-23T05:30:06;11.00;;;6.73;;
19887;SDS011;10106;51.332;12.336;2022-07-23T05:32:32;12.43;;;6.68;;
19887;SDS011;10106;51.332;12.336;2022-07-23T05:34:58;12.88;;;7.30;;
19887;SDS011;10106;51.332;12.336;2022-07-23T05:37:24;10.25;;;7.00;;
19887;SDS011;10106;51.332;12.336;2022-07-23T05:39:49;11.95;;;7.00;;
19887;SDS011;10106;51.332;12.336;2022-07-23T05:42:15;10.55;;;6.30;;
19887;SDS011;10106;51.332;12.336;2022-07-23T05:44:41;9.45;;;7.18;;
19887;SDS011;10106;51.332;12.336;2022-07-23T05:47:07;8.95;;;6.20;;
19887;SDS011;10106;51.332;12.336;2022-07-23T05:49:33;10.83;;;6.40;;
19887;SDS011;10106;51.332;12.336;2022-07-23T05:51:58;12.77;;;7.43;;
19887;SDS011;10106;51.332;12.336;2022-07-23T05:54:29;10.43;;;6.40;;
19887;SDS011;10106;51.332;12.336;2022-07-23T05:56:54;12.10;;;5.87;;
19887;SDS011;10106;51.332;12.336;2022-07-23T05:59:20;10.87;;;6.80;;
19887;SDS011;10106;51.332;12.336;2022-07-23T06:01:46;10.77;;;6.90;;
19887;SDS011;10106;51.332;12.336;2022-07-23T06:04:11;9.82;;;5.97;;
19887;SDS011;10106;51.332;12.336;2022-07-23T06:06:37;11.07;;;6.40;;
19887;SDS011;10106;51.332;12.336;2022-07-23T06:09:03;10.45;;;6.25;;
19887;SDS011;10106;51.332;12.336;2022-07-23T06:11:28;8.35;;;6.28;;
19887;SDS011;10106;51.332;12.336;2022-07-23T06:13:54;9.82;;;6.40;;
19887;SDS011;10106;51.332;12.336;2022-07-23T06:16:20;12.73;;;6.80;;
19887;SDS011;10106;51.332;12.336;2022-07-23T06:18:46;11.50;;;6.50;;
19887;SDS011;10106;51.332;12.336;2022-07-23T06:21:11;6.33;;;5.40;;
19887;SDS011;10106;51.332;12.336;2022-07-23T06:23:37;6.50;;;4.70;;
19887;SDS011;10106;51.332;12.336;2022-07-23T06:26:06;9.87;;;4.10;;
19887;SDS011;10106;51.332;12.336;2022-07-23T06:28:32;6.60;;;4.60;;
19887;SDS011;10106;51.332;12.336;2022-07-23T06:30:57;6.90;;;4.57;;
19887;SDS011;10106;51.332;12.336;2022-07-23T06:33:23;7.53;;;4.87;;
19887;SDS011;10106;51.332;12.336;2022-07-23T06:35:54;7.03;;;4.70;;
19887;SDS011;10106;51.332;12.336;2022-07-23T06:38:20;7.93;;;5.13;;
19887;SDS011;10106;51.332;12.336;2022-07-23T06:40:46;10.23;;;5.23;;
19887;SDS011;10106;51.332;12.336;2022-07-23T06:43:11;8.57;;;4.77;;
19887;SDS011;10106;51.332;12.336;2022-07-23T06:45:37;7.70;;;5.00;;
19887;SDS011;10106;51.332;12.336;2022-07-23T06:48:02;7.20;;;4.40;;
19887;SDS011;10106;51.332;12.336;2022-07-23T06:50:28;5.80;;;4.00;;
19887;SDS011;10106;51.332;12.336;2022-07-23T06:52:54;5.00;;;4.40;;
19887;SDS011;10106;51.332;12.336;2022-07-23T06:55:20;5.07;;;4.00;;
19887;SDS011;10106;51.332;12.336;2022-07-23T06:57:45;8.73;;;4.80;;
19887;SDS011;10106;51.332;12.336;2022-07-23T07:00:11;7.17;;;5.17;;
19887;SDS011;10106;51.332;12.336;2022-07-23T07:02:37;8.07;;;5.03;;
19887;SDS011;10106;51.332;12.336;2022-07-23T07:05:03;7.63;;;4.73;;
19887;SDS011;10106;51.332;12.336;2022-07-23T07:07:28;5.63;;;4.23;;
19887;SDS011;10106;51.332;12.336;2022-07-23T07:09:54;4.90;;;3.70;;
19887;SDS011;10106;51.332;12.336;2022-07-23T07:12:19;6.90;;;4.87;;
19887;SDS011;10106;51.332;12.336;2022-07-23T07:14:45;8.43;;;5.23;;
19887;SDS011;10106;51.332;12.336;2022-07-23T07:17:11;8.20;;;4.90;;
19887;SDS011;10106;51.332;12.336;2022-07-23T07:19:36;8.43;;;4.40;;
19887;SDS011;10106;51.332;12.336;2022-07-23T07:22:02;9.17;;;4.70;;
19887;SDS011;10106;51.332;12.336;2022-07-23T07:24:28;8.30;;;5.23;;
19887;SDS011;10106;51.332;12.336;2022-07-23T07:26:53;8.33;;;5.40;;
19887;SDS011;10106;51.332;12.336;2022-07-23T07:29:21;7.33;;;4.90;;
19887;SDS011;10106;51.332;12.336;2022-07-23T07:31:46;9.90;;;4.80;;
19887;SDS011;10106;51.332;12.336;2022-07-23T07:34:12;8.03;;;5.23;;
19887;SDS011;10106;51.332;12.336;2022-07-23T07:36:38;9.30;;;4.90;;
19887;SDS011;10106;51.332;12.336;2022-07-23T07:39:03;7.10;;;5.30;;
19887;SDS011;10106;51.332;12.336;2022-07-23T07:41:30;7.30;;;5.60;;
19887;SDS011;10106;51.332;12.336;2022-07-23T07:43:56;6.00;;;4.47;;
19887;SDS011;10106;51.332;12.336;2022-07-23T07:46:21;8.33;;;4.90;;
19887;SDS011;10106;51.332;12.336;2022-07-23T07:48:49;6.27;;;4.87;;
19887;SDS011;10106;51.332;12.336;2022-07-23T07:51:15;8.73;;;5.17;;
19887;SDS011;10106;51.332;12.336;2022-07-23T07:53:40;8.73;;;5.47;;
19887;SDS011;10106;51.332;12.336;2022-07-23T07:56:06;9.80;;;4.50;;
19887;SDS011;10106;51.332;12.336;2022-07-23T07:58:32;10.63;;;5.17;;
19887;SDS011;10106;51.332;12.336;2022-07-23T08:00:57;9.00;;;6.30;;
19887;SDS011;10106;51.332;12.336;2022-07-23T08:03:23;9.93;;;5.90;;
19887;SDS011;10106;51.332;12.336;2022-07-23T08:05:49;12.57;;;6.03;;
19887;SDS011;10106;51.332;12.336;2022-07-23T08:08:14;9.50;;;6.20;;
19887;SDS011;10106;51.332;12.336;2022-07-23T08:10:40;6.90;;;5.23;;
19887;SDS011;10106;51.332;12.336;2022-07-23T08:13:06;11.43;;;6.80;;
19887;SDS011;10106;51.332;12.336;2022-07-23T08:15:32;9.00;;;5.47;;
19887;SDS011;10106;51.332;12.336;2022-07-23T08:17:58;10.43;;;6.50;;
19887;SDS011;10106;51.332;12.336;2022-07-23T08:20:24;6.87;;;5.33;;
19887;SDS011;10106;51.332;12.336;2022-07-23T08:22:54;9.30;;;6.40;;
19887;SDS011;10106;51.332;12.336;2022-07-23T08:25:28;6.53;;;5.10;;
19887;SDS011;10106;51.332;12.336;2022-07-23T08:27:58;6.37;;;4.83;;
19887;SDS011;10106;51.332;12.336;2022-07-23T08:30:25;7.07;;;5.47;;
19887;SDS011;10106;51.332;12.336;2022-07-23T08:32:56;9.63;;;6.20;;
19887;SDS011;10106;51.332;12.336;2022-07-23T08:35:32;9.00;;;6.63;;
19887;SDS011;10106;51.332;12.336;2022-07-23T08:38:00;12.70;;;6.97;;
19887;SDS011;10106;51.332;12.336;2022-07-23T08:40:30;11.30;;;7.00;;
19887;SDS011;10106;51.332;12.336;2022-07-23T08:42:57;9.43;;;6.50;;
19887;SDS011;10106;51.332;12.336;2022-07-23T08:45:25;11.90;;;7.00;;
19887;SDS011;10106;51.332;12.336;2022-07-23T08:47:55;13.90;;;8.40;;
19887;SDS011;10106;51.332;12.336;2022-07-23T08:50:23;9.50;;;7.30;;
19887;SDS011;10106;51.332;12.336;2022-07-23T08:52:50;10.40;;;6.70;;
19887;SDS011;10106;51.332;12.336;2022-07-23T08:55:17;12.83;;;8.10;;
19887;SDS011;10106;51.332;12.336;2022-07-23T08:57:44;12.30;;;7.80;;
19887;SDS011;10106;51.332;12.336;2022-07-23T09:00:15;10.47;;;7.20;;
19887;SDS011;10106;51.332;12.336;2022-07-23T09:02:42;9.90;;;6.30;;
19887;SDS011;10106;51.332;12.336;2022-07-23T09:05:09;8.60;;;5.40;;
19887;SDS011;10106;51.332;12.336;2022-07-23T09:07:36;8.80;;;6.13;;
19887;SDS011;10106;51.332;12.336;2022-07-23T09:10:07;7.93;;;5.80;;
19887;SDS011;10106;51.332;12.336;2022-07-23T09:12:37;9.60;;;6.00;;
19887;SDS011;10106;51.332;12.336;2022-07-23T09:15:04;7.83;;;6.30;;
19887;SDS011;10106;51.332;12.336;2022-07-23T09:17:36;12.23;;;7.03;;
19887;SDS011;10106;51.332;12.336;2022-07-23T09:20:22;11.30;;;6.63;;
19887;SDS011;10106;51.332;12.336;2022-07-23T09:22:48;8.87;;;6.40;;
19887;SDS011;10106;51.332;12.336;2022-07-23T09:27:48;9.50;;;6.30;;
19887;SDS011;10106;51.332;12.336;2022-07-23T09:30:18;6.50;;;5.40;;
19887;SDS011;10106;51.332;12.336;2022-07-23T09:33:04;8.73;;;6.17;;
19887;SDS011;10106;51.332;12.336;2022-07-23T09:38:16;9.30;;;6.30;;
19887;SDS011;10106;51.332;12.336;2022-07-23T09:40:43;8.43;;;6.10;;
19887;SDS011;10106;51.332;12.336;2022-07-23T09:43:09;8.20;;;5.70;;
19887;SDS011;10106;51.332;12.336;2022-07-23T09:45:35;7.20;;;5.83;;
19887;SDS011;10106;51.332;12.336;2022-07-23T09:48:10;7.90;;;5.70;;
19887;SDS011;10106;51.332;12.336;2022-07-23T09:50:37;7.13;;;5.50;;
19887;SDS011;10106;51.332;12.336;2022-07-23T09:53:04;7.43;;;5.20;;
19887;SDS011;10106;51.332;12.336;2022-07-23T09:55:33;10.57;;;6.13;;
19887;SDS011;10106;51.332;12.336;2022-07-23T09:58:01;9.90;;;5.40;;
19887;SDS011;10106;51.332;12.336;2022-07-23T10:00:28;6.60;;;5.17;;
19887;SDS011;10106;51.332;12.336;2022-07-23T10:02:54;7.40;;;4.83;;
19887;SDS011;10106;51.332;12.336;2022-07-23T10:05:20;7.97;;;6.03;;
19887;SDS011;10106;51.332;12.336;2022-07-23T10:07:46;9.20;;;5.27;;
19887;SDS011;10106;51.332;12.336;2022-07-23T10:10:15;13.00;;;5.23;;
19887;SDS011;10106;51.332;12.336;2022-07-23T10:12:43;7.13;;;5.50;;
19887;SDS011;10106;51.332;12.336;2022-07-23T10:15:31;11.40;;;5.80;;
19887;SDS011;10106;51.332;12.336;2022-07-23T10:17:56;9.00;;;5.13;;
19887;SDS011;10106;51.332;12.336;2022-07-23T10:20:22;8.03;;;5.60;;
19887;SDS011;10106;51.332;12.336;2022-07-23T10:23:35;9.30;;;5.80;;
19887;SDS011;10106;51.332;12.336;2022-07-23T10:25:46;12.90;;;6.40;;
19887;SDS011;10106;51.332;12.336;2022-07-23T10:28:40;8.97;;;5.87;;
19887;SDS011;10106;51.332;12.336;2022-07-23T10:31:37;14.47;;;7.07;;
19887;SDS011;10106;51.332;12.336;2022-07-23T10:40:18;11.73;;;6.20;;
19887;SDS011;10106;51.332;12.336;2022-07-23T10:42:47;10.30;;;6.37;;
19887;SDS011;10106;51.332;12.336;2022-07-23T10:45:23;9.50;;;7.10;;
19887;SDS011;10106;51.332;12.336;2022-07-23T10:47:54;12.40;;;8.23;;
19887;SDS011;10106;51.332;12.336;2022-07-23T10:50:25;9.97;;;7.23;;
19887;SDS011;10106;51.332;12.336;2022-07-23T10:53:13;10.87;;;6.83;;
19887;SDS011;10106;51.332;12.336;2022-07-23T10:55:42;11.43;;;6.83;;
19887;SDS011;10106;51.332;12.336;2022-07-23T10:58:21;13.27;;;7.67;;
19887;SDS011;10106;51.332;12.336;2022-07-23T11:03:58;10.50;;;7.30;;
19887;SDS011;10106;51.332;12.336;2022-07-23T11:06:24;11.77;;;8.17;;
19887;SDS011;10106;51.332;12.336;2022-07-23T11:09:29;8.37;;;6.10;;
19887;SDS011;10106;51.332;12.336;2022-07-23T11:25:10;12.17;;;7.07;;
19887;SDS011;10106;51.332;12.336;2022-07-23T11:27:40;10.93;;;7.43;;
19887;SDS011;10106;51.332;12.336;2022-07-23T11:30:07;9.60;;;7.20;;
19887;SDS011;10106;51.332;12.336;2022-07-23T11:32:35;10.40;;;6.73;;
19887;SDS011;10106;51.332;12.336;2022-07-23T11:35:21;11.63;;;7.63;;
19887;SDS011;10106;51.332;12.336;2022-07-23T11:37:49;15.63;;;6.90;;
19887;SDS011;10106;51.332;12.336;2022-07-23T11:40:19;12.73;;;6.77;;
19887;SDS011;10106;51.332;12.336;2022-07-23T11:42:52;11.83;;;7.20;;
19887;SDS011;10106;51.332;12.336;2022-07-23T11:45:17;16.60;;;8.53;;
19887;SDS011;10106;51.332;12.336;2022-07-23T11:47:43;13.00;;;7.77;;
19887;SDS011;10106;51.332;12.336;2022-07-23T11:50:09;9.50;;;7.20;;
19887;SDS011;10106;51.332;12.336;2022-07-23T11:52:34;10.80;;;7.73;;
19887;SDS011;10106;51.332;12.336;2022-07-23T11:55:02;12.87;;;8.37;;
19887;SDS011;10106;51.332;12.336;2022-07-23T11:57:32;15.77;;;8.50;;
19887;SDS011;10106;51.332;12.336;2022-07-23T12:00:19;14.57;;;8.40;;
19887;SDS011;10106;51.332;12.336;2022-07-23T12:02:49;11.23;;;7.50;;
19887;SDS011;10106;51.332;12.336;2022-07-23T12:05:18;12.00;;;7.40;;
19887;SDS011;10106;51.332;12.336;2022-07-23T12:07:51;12.07;;;7.53;;
19887;SDS011;10106;51.332;12.336;2022-07-23T12:10:19;11.87;;;7.30;;
19887;SDS011;10106;51.332;12.336;2022-07-23T12:12:48;14.30;;;8.33;;
19887;SDS011;10106;51.332;12.336;2022-07-23T12:15:20;11.57;;;8.87;;
19887;SDS011;10106;51.332;12.336;2022-07-23T12:17:50;12.70;;;9.50;;
19887;SDS011;10106;51.332;12.336;2022-07-23T12:20:21;12.10;;;8.33;;
19887;SDS011;10106;51.332;12.336;2022-07-23T12:22:51;10.17;;;7.60;;
19887;SDS011;10106;51.332;12.336;2022-07-23T12:25:21;11.23;;;8.27;;
19887;SDS011;10106;51.332;12.336;2022-07-23T12:28:02;16.77;;;10.73;;
19887;SDS011;10106;51.332;12.336;2022-07-23T12:30:29;13.97;;;9.60;;
19887;SDS011;10106;51.332;12.336;2022-07-23T12:32:57;15.07;;;9.97;;
19887;SDS011;10106;51.332;12.336;2022-07-23T12:35:29;12.17;;;10.07;;
19887;SDS011;10106;51.332;12.336;2022-07-23T12:37:59;13.30;;;9.33;;
19887;SDS011;10106;51.332;12.336;2022-07-23T12:43:41;14.10;;;9.00;;
19887;SDS011;10106;51.332;12.336;2022-07-23T12:45:54;13.53;;;9.90;;
19887;SDS011;10106;51.332;12.336;2022-07-23T12:50:51;14.00;;;9.57;;
19887;SDS011;10106;51.332;12.336;2022-07-23T12:53:24;12.37;;;9.07;;
19887;SDS011;10106;51.332;12.336;2022-07-23T12:55:59;12.40;;;9.13;;
19887;SDS011;10106;51.332;12.336;2022-07-23T12:58:49;9.83;;;7.73;;
19887;SDS011;10106;51.332;12.336;2022-07-23T13:07:00;11.00;;;8.50;;
19887;SDS011;10106;51.332;12.336;2022-07-23T13:09:27;9.90;;;8.13;;
19887;SDS011;10106;51.332;12.336;2022-07-23T13:11:55;10.00;;;7.97;;
19887;SDS011;10106;51.332;12.336;2022-07-23T13:14:21;11.73;;;7.73;;
19887;SDS011;10106;51.332;12.336;2022-07-23T13:16:48;9.47;;;7.10;;
19887;SDS011;10106;51.332;12.336;2022-07-23T13:19:15;10.57;;;7.10;;
19887;SDS011;10106;51.332;12.336;2022-07-23T13:21:41;12.63;;;8.47;;
19887;SDS011;10106;51.332;12.336;2022-07-23T13:24:08;17.03;;;8.00;;
19887;SDS011;10106;51.332;12.336;2022-07-23T13:26:34;8.90;;;5.90;;
19887;SDS011;10106;51.332;12.336;2022-07-23T13:29:00;9.77;;;7.93;;
19887;SDS011;10106;51.332;12.336;2022-07-23T13:31:26;10.20;;;7.20;;
19887;SDS011;10106;51.332;12.336;2022-07-23T13:33:51;7.90;;;6.57;;
19887;SDS011;10106;51.332;12.336;2022-07-23T13:36:17;11.50;;;7.10;;
19887;SDS011;10106;51.332;12.336;2022-07-23T13:38:42;11.70;;;6.50;;
19887;SDS011;10106;51.332;12.336;2022-07-23T13:41:08;10.87;;;7.53;;
19887;SDS011;10106;51.332;12.336;2022-07-23T13:43:34;10.23;;;6.93;;
19887;SDS011;10106;51.332;12.336;2022-07-23T13:45:59;10.30;;;6.40;;
19887;SDS011;10106;51.332;12.336;2022-07-23T13:48:25;16.70;;;6.73;;
19887;SDS011;10106;51.332;12.336;2022-07-23T13:50:51;10.90;;;7.30;;
19887;SDS011;10106;51.332;12.336;2022-07-23T13:53:18;7.70;;;5.57;;
19887;SDS011;10106;51.332;12.336;2022-07-23T13:55:46;10.03;;;6.40;;
19887;SDS011;10106;51.332;12.336;2022-07-23T13:58:12;8.90;;;6.00;;
19887;SDS011;10106;51.332;12.336;2022-07-23T14:00:42;17.23;;;6.50;;
19887;SDS011;10106;51.332;12.336;2022-07-23T14:03:10;9.23;;;6.37;;
19887;SDS011;10106;51.332;12.336;2022-07-23T14:05:35;8.40;;;6.13;;
19887;SDS011;10106;51.332;12.336;2022-07-23T14:08:02;7.87;;;6.00;;
19887;SDS011;10106;51.332;12.336;2022-07-23T14:10:28;10.47;;;7.93;;
19887;SDS011;10106;51.332;12.336;2022-07-23T14:12:54;13.33;;;6.63;;
19887;SDS011;10106;51.332;12.336;2022-07-23T14:15:22;12.70;;;7.90;;
19887;SDS011;10106;51.332;12.336;2022-07-23T14:17:49;9.73;;;8.00;;
19887;SDS011;10106;51.332;12.336;2022-07-23T14:20:15;8.03;;;7.03;;
19887;SDS011;10106;51.332;12.336;2022-07-23T14:22:41;7.93;;;7.20;;
19887;SDS011;10106;51.332;12.336;2022-07-23T14:25:07;8.63;;;7.70;;
19887;SDS011;10106;51.332;12.336;2022-07-23T14:27:34;9.90;;;6.63;;
19887;SDS011;10106;51.332;12.336;2022-07-23T14:30:02;14.80;;;7.90;;
19887;SDS011;10106;51.332;12.336;2022-07-23T14:32:29;11.47;;;8.20;;
19887;SDS011;10106;51.332;12.336;2022-07-23T14:34:54;9.20;;;7.40;;
19887;SDS011;10106;51.332;12.336;2022-07-23T14:37:20;9.90;;;7.50;;
19887;SDS011;10106;51.332;12.336;2022-07-23T14:39:46;10.33;;;8.23;;
19887;SDS011;10106;51.332;12.336;2022-07-23T14:42:12;10.17;;;7.17;;
19887;SDS011;10106;51.332;12.336;2022-07-23T14:44:38;10.43;;;7.57;;
19887;SDS011;10106;51.332;12.336;2022-07-23T14:47:04;11.57;;;8.70;;
19887;SDS011;10106;51.332;12.336;2022-07-23T14:49:30;8.23;;;7.03;;
19887;SDS011;10106;51.332;12.336;2022-07-23T14:51:57;9.60;;;7.47;;
19887;SDS011;10106;51.332;12.336;2022-07-23T14:54:23;10.93;;;7.57;;
19887;SDS011;10106;51.332;12.336;2022-07-23T14:56:51;10.60;;;7.60;;
19887;SDS011;10106;51.332;12.336;2022-07-23T14:59:17;10.93;;;7.17;;
19887;SDS011;10106;51.332;12.336;2022-07-23T15:01:42;11.80;;;7.40;;
19887;SDS011;10106;51.332;12.336;2022-07-23T15:04:08;12.07;;;8.97;;
19887;SDS011;10106;51.332;12.336;2022-07-23T15:06:34;12.30;;;8.70;;
19887;SDS011;10106;51.332;12.336;2022-07-23T15:09:00;9.40;;;7.70;;
19887;SDS011;10106;51.332;12.336;2022-07-23T15:11:28;10.77;;;8.50;;
19887;SDS011;10106;51.332;12.336;2022-07-23T15:13:57;10.90;;;7.90;;
19887;SDS011;10106;51.332;12.336;2022-07-23T15:16:23;10.70;;;8.30;;
19887;SDS011;10106;51.332;12.336;2022-07-23T15:18:49;9.77;;;7.03;;
19887;SDS011;10106;51.332;12.336;2022-07-23T15:21:14;13.60;;;9.00;;
19887;SDS011;10106;51.332;12.336;2022-07-23T15:23:40;9.43;;;7.43;;
19887;SDS011;10106;51.332;12.336;2022-07-23T15:26:06;10.43;;;8.17;;
19887;SDS011;10106;51.332;12.336;2022-07-23T15:28:33;10.80;;;8.37;;
19887;SDS011;10106;51.332;12.336;2022-07-23T15:30:59;11.60;;;8.40;;
19887;SDS011;10106;51.332;12.336;2022-07-23T15:33:25;11.13;;;7.90;;
19887;SDS011;10106;51.332;12.336;2022-07-23T15:35:51;11.53;;;8.33;;
19887;SDS011;10106;51.332;12.336;2022-07-23T15:38:17;11.40;;;8.43;;
19887;SDS011;10106;51.332;12.336;2022-07-23T15:40:43;10.70;;;8.10;;
19887;SDS011;10106;51.332;12.336;2022-07-23T15:43:09;10.47;;;8.13;;
19887;SDS011;10106;51.332;12.336;2022-07-23T15:45:34;9.50;;;7.53;;
19887;SDS011;10106;51.332;12.336;2022-07-23T15:48:00;9.77;;;7.70;;
19887;SDS011;10106;51.332;12.336;2022-07-23T15:50:26;8.60;;;7.53;;
19887;SDS011;10106;51.332;12.336;2022-07-23T15:52:51;11.83;;;8.30;;
19887;SDS011;10106;51.332;12.336;2022-07-23T15:55:17;10.20;;;8.53;;
19887;SDS011;10106;51.332;12.336;2022-07-23T15:57:44;13.60;;;7.33;;
19887;SDS011;10106;51.332;12.336;2022-07-23T16:00:10;11.43;;;8.23;;
19887;SDS011;10106;51.332;12.336;2022-07-23T16:02:35;9.97;;;7.60;;
19887;SDS011;10106;51.332;12.336;2022-07-23T16:05:01;9.37;;;7.20;;
19887;SDS011;10106;51.332;12.336;2022-07-23T16:07:46;11.23;;;7.63;;
19887;SDS011;10106;51.332;12.336;2022-07-23T16:10:11;13.17;;;9.47;;
19887;SDS011;10106;51.332;12.336;2022-07-23T16:12:37;8.57;;;6.87;;
19887;SDS011;10106;51.332;12.336;2022-07-23T16:15:03;9.33;;;7.53;;
19887;SDS011;10106;51.332;12.336;2022-07-23T16:17:29;8.90;;;6.40;;